aviador You're here:

KASH Decoded Metar

NASHUA/BOIRE FLD in NH, USA
Report Time2017-07-23 07:56:00
UTC Time2017-07-23 08:48:20
Flight Rules vfr VFR
Wind070° at 03 kt
W.Decomp.*RWY 14: 1.8 kt HW 2.4 kt LCW
W.Rank070° ranks 28
Current wind is below 070° avg. (5.7)
Visibility9999 m
Phenomena:N/A
Clouds:N/A
Expected CloudBase > 2,000 ft AGL from Temp-Dew spread
CeilingNone
Temp22°C (ISA +7)
Dew Point17°C (73% RH)
QNH1009 hPa
Density Alt1,453 ft
Elevation200 ft
Report Wrong Elevation
Raw Report
METAR KASH 230756Z AUTO 07003KT 10SM CLR 22/17 A2979 RMK AO2 SLP096
T02170172=

Extra information for KASH:More info

Metar Taf Metar & Taf Last 4 Metars F.Rules Stats Wind Profile Meteogram Temp Stats Airport Information Weather charts Add Link Nearby VenuesMetar ALERT Operation Metar Decoded Social comments

AIRNAV info for KASH